Stations météo

réclame
Mon MeteoGroup
Stansted, Grande-Bretagne (3683): Température de l'air & dewpoint: 18.05.2019 02:00:00 - 24.05.2019 02:00:00 (BST)Stansted, Grande-Bretagne (3683): Vitesse du vent: 18.05.2019 02:00:00 - 24.05.2019 02:00:00 (BST)Stansted, Grande-Bretagne (3683): Direction du vent: 18.05.2019 02:00:00 - 24.05.2019 02:00:00 (BST)Stansted, Grande-Bretagne (3683): visibility: 18.05.2019 02:00:00 - 24.05.2019 02:00:00 (BST)
Date & Time tt [°C] td [°C] ff [km/h] ff [knt] dd vv [km]
24.05.2019 02:00:00 11,0 7,0 11 6 NNW 10
24.05.2019 01:00:00 10,0 8,0 5 3 WNW 10
24.05.2019 00:00:00 12,0 9,0 5 3 WNW 10
23.05.2019 23:00:00 13,0 9,0 5 3 W 10
23.05.2019 22:00:00 16,0 9,0 5 3 NW 10
23.05.2019 21:00:00 18,0 8,0 8 4 NNW 10
23.05.2019 20:00:00 19,0 8,0 8 4 NNW 10
23.05.2019 19:00:00 21,0 8,0 8 4 NW 10
23.05.2019 18:00:00 22,0 8,0 11 6 SW 10
23.05.2019 17:00:00 21,0 7,0 9 5 W 10
23.05.2019 16:00:00 23,0 8,0 11 6 WSW 10
23.05.2019 15:00:00 22,0 7,0 15 8 SW 10
23.05.2019 14:00:00 22,0 8,0 13 7 SSW 10
23.05.2019 13:00:00 21,0 8,0 15 8 WSW 10
23.05.2019 12:00:00 20,0 7,0 11 6 W 10
23.05.2019 11:00:00 18,0 7,0 13 7 WSW 10
23.05.2019 10:00:00 16,0 9,0 11 6 SW 10
23.05.2019 09:00:00 15,0 8,0 11 6 WSW 10
23.05.2019 08:00:00 12,0 8,0 8 4 SW 10
23.05.2019 07:00:00 11,0 6,0 8 4 SW 10
23.05.2019 06:00:00 8,0 5,0 8 4 WSW 10
23.05.2019 05:00:00 8,0 5,0 5 3 - 10
23.05.2019 04:00:00 9,0 5,0 5 3 - 10
23.05.2019 03:00:00 10,0 5,0 13 7 WSW 10
23.05.2019 02:00:00 9,0 5,0 11 6 SW 10
23.05.2019 01:00:00 10,0 6,0 11 6 SW 10
23.05.2019 00:00:00 11,0 6,0 11 6 SW 10
22.05.2019 23:00:00 13,0 7,0 13 7 SW 10
22.05.2019 22:00:00 15,0 7,0 9 5 S 10
22.05.2019 21:00:00 15,0 7,0 11 6 SW 10
22.05.2019 20:00:00 18,0 7,0 8 4 W 10
22.05.2019 19:00:00 18,0 5,0 11 6 W 10
22.05.2019 18:00:00 19,0 5,0 16 9 SW 10
22.05.2019 17:00:00 20,0 5,0 11 6 SW 10
22.05.2019 16:00:00 19,0 5,0 15 8 SW 10
22.05.2019 15:00:00 20,0 6,0 13 7 SW 10
22.05.2019 14:00:00 19,0 7,0 13 7 WSW 10
22.05.2019 13:00:00 18,0 6,0 9 5 SW 10
22.05.2019 12:00:00 17,0 6,0 9 5 SW 10
22.05.2019 11:00:00 16,0 7,0 9 5 S 10
22.05.2019 10:00:00 14,0 6,0 4 2 - 10
22.05.2019 09:00:00 13,0 7,0 4 2 - 10
22.05.2019 08:00:00 11,0 6,0 5 3 - 10
22.05.2019 07:00:00 9,0 6,0 4 2 NW 10
22.05.2019 06:00:00 8,0 5,0 5 3 NNW 10
22.05.2019 05:00:00 7,0 4,0 5 3 N 10
22.05.2019 04:00:00 7,0 3,0 8 4 NNW 10
22.05.2019 03:00:00 7,0 3,0 8 4 NW 10
22.05.2019 02:00:00 8,0 3,0 5 3 NNW 10
22.05.2019 01:00:00 8,0 4,0 5 3 NW 10
22.05.2019 00:00:00 10,0 4,0 2 1 NW 10
21.05.2019 23:00:00 11,0 5,0 4 2 NW 10
21.05.2019 22:00:00 13,0 6,0 9 5 NW 10
21.05.2019 21:00:00 15,0 7,0 9 5 NW 10
21.05.2019 20:00:00 17,0 7,0 8 4 WNW 10
21.05.2019 19:00:00 17,0 7,0 8 4 NW 10
21.05.2019 18:00:00 17,0 7,0 13 7 NW 10
21.05.2019 17:00:00 19,0 7,0 11 6 WNW 10
21.05.2019 16:00:00 19,0 7,0 15 8 WNW 10
21.05.2019 15:00:00 18,0 8,0 15 8 WNW 10
21.05.2019 14:00:00 18,0 8,0 15 8 NW 10
21.05.2019 13:00:00 17,0 7,0 15 8 WNW 10
21.05.2019 12:00:00 16,0 9,0 15 8 NNW 10
21.05.2019 11:00:00 16,0 9,0 15 8 NW 10
21.05.2019 10:00:00 14,0 9,0 13 7 WNW 10
21.05.2019 09:00:00 13,0 9,0 13 7 NNW 10
21.05.2019 08:00:00 11,0 8,0 13 7 NNW 10
21.05.2019 07:00:00 9,0 7,0 11 6 NW 10
21.05.2019 06:00:00 7,0 6,0 8 4 NNW 10
21.05.2019 05:00:00 7,0 7,0 9 5 NW 10
21.05.2019 04:00:00 8,0 7,0 8 4 NW 10
21.05.2019 03:00:00 8,0 7,0 5 3 NNW 8
21.05.2019 02:00:00 8,0 8,0 8 4 NNW 10
21.05.2019 01:00:00 8,0 8,0 4 2 N 10
21.05.2019 00:00:00 8,0 8,0 4 2 NNW 10
20.05.2019 23:00:00 10,0 8,0 4 2 WNW 10
20.05.2019 22:00:00 13,0 9,0 4 2 - 10
20.05.2019 21:00:00 14,0 10,0 4 2 WNW 10
20.05.2019 20:00:00 16,0 10,0 8 4 NNW 10
20.05.2019 19:00:00 16,0 10,0 9 5 NNW 10
20.05.2019 18:00:00 17,0 10,0 11 6 NNW 10
20.05.2019 17:00:00 17,0 10,0 11 6 NW 10
20.05.2019 16:00:00 17,0 9,0 13 7 NNW 10
20.05.2019 15:00:00 19,0 10,0 13 7 NNW 10
20.05.2019 14:00:00 18,0 10,0 13 7 NNW 10
20.05.2019 13:00:00 18,0 11,0 13 7 NNW 10
20.05.2019 12:00:00 17,0 11,0 16 9 NNW 10
20.05.2019 11:00:00 16,0 12,0 13 7 N 10
20.05.2019 10:00:00 14,0 12,0 13 7 NNW 7
20.05.2019 09:00:00 11,0 10,0 13 7 NNW 5
20.05.2019 08:00:00 11,0 10,0 11 6 NNW 5
20.05.2019 07:00:00 10,0 10,0 8 4 NNW 4,9
20.05.2019 06:00:00 10,0 9,0 5 3 NNW 4,1
20.05.2019 05:00:00 10,0 9,0 9 5 WNW 6
20.05.2019 04:00:00 10,0 9,0 8 4 NNW 10
20.05.2019 03:00:00 10,0 9,0 5 3 NW 10
20.05.2019 02:00:00 10,0 10,0 5 3 NW 10
20.05.2019 01:00:00 11,0 10,0 4 2 - 2,2
20.05.2019 00:00:00 11,0 11,0 8 4 ENE 4,6
19.05.2019 23:00:00 12,0 11,0 11 6 ENE 7
19.05.2019 22:00:00 13,0 12,0 13 7 NE 4,1
19.05.2019 21:00:00 14,0 11,0 4 2 WNW 10
19.05.2019 20:00:00 15,0 11,0 2 1 WNW 10
19.05.2019 19:00:00 15,0 11,0 2 1 - 10
19.05.2019 18:00:00 15,0 11,0 5 3 NNW 10
19.05.2019 17:00:00 15,0 11,0 5 3 - 10
19.05.2019 16:00:00 15,0 10,0 9 5 N 10
19.05.2019 15:00:00 15,0 11,0 9 5 N 10
19.05.2019 14:00:00 16,0 12,0 11 6 N 10
19.05.2019 13:00:00 15,0 12,0 9 5 NNW 7
19.05.2019 12:00:00 14,0 12,0 8 4 NNW 8
19.05.2019 11:00:00 14,0 12,0 8 4 N 6
19.05.2019 10:00:00 12,0 12,0 9 5 NNE 4,2
19.05.2019 09:00:00 12,0 12,0 5 3 - 1,1
19.05.2019 08:00:00 10,0 10,0 5 3 - 0,2
19.05.2019 07:00:00 8,0 8,0 5 3 NNW 1,0
19.05.2019 06:00:00 8,0 8,0 5 3 NW 1,8
19.05.2019 05:00:00 6,0 6,0 5 3 NNW 5
19.05.2019 04:00:00 7,0 7,0 2 1 NE 4,0
19.05.2019 03:00:00 7,0 6,0 2 1 SE 4,0
19.05.2019 02:00:00 6,0 6,0 5 3 NW 0,1
19.05.2019 01:00:00 8,0 8,0 4 2 NNW 7
19.05.2019 00:00:00 10,0 10,0 4 2 - 7
18.05.2019 23:00:00 11,0 10,0 5 3 NE 10
18.05.2019 22:00:00 11,0 10,0 8 4 NE 10
18.05.2019 21:00:00 12,0 11,0 11 6 E 10
18.05.2019 20:00:00 13,0 11,0 9 5 ESE 7
18.05.2019 19:00:00 14,0 10,0 9 5 N 10
18.05.2019 18:00:00 15,0 10,0 11 6 NNW 10
18.05.2019 17:00:00 16,0 9,0 4 2 - 10
18.05.2019 16:00:00 16,0 9,0 4 2 - 10
18.05.2019 15:00:00 15,0 9,0 2 1 - 10
18.05.2019 14:00:00 16,0 9,0 8 4 SW 9
18.05.2019 13:00:00 14,0 9,0 8 4 SW 10
18.05.2019 12:00:00 14,0 10,0 9 5 SW 10
18.05.2019 11:00:00 13,0 11,0 2 1 - 9
18.05.2019 10:00:00 12,0 9,0 4 2 - 10
18.05.2019 09:00:00 11,0 10,0 5 3 - 9
18.05.2019 08:00:00 11,0 10,0 4 2 - 6
18.05.2019 07:00:00 10,0 10,0 2 1 - 5
18.05.2019 06:00:00 10,0 9,0 4 2 - 3,0
18.05.2019 05:00:00 9,0 9,0 4 2 - 1,5
18.05.2019 04:00:00 9,0 9,0 4 2 N 2,5
18.05.2019 03:00:00 10,0 9,0 5 3 NNW 3,4
18.05.2019 02:00:00 10,0 9,0 5 3 NNW 5

tt = Température de l'air
td = dewpoint
ff = Vitesse du vent
dd = Direction du vent
vv = visibility

stations d'obs. à proximité